createdAt,value
2022-12-07T00:01:47.233Z,97.54
2022-12-07T00:04:18.016Z,97.74
2022-12-07T00:06:49.058Z,97.52
2022-12-07T00:09:20.268Z,97.28
2022-12-07T00:11:52.140Z,97.38
2022-12-07T00:14:23.177Z,96.91
2022-12-07T00:16:55.181Z,97.13
2022-12-07T00:19:23.973Z,97.44
2022-12-07T00:21:55.514Z,97.68
2022-12-07T00:24:24.615Z,97.69
2022-12-07T00:26:53.520Z,97.18
2022-12-07T00:29:24.666Z,97.48
2022-12-07T00:31:53.403Z,97.50
2022-12-07T00:34:23.435Z,97.84
2022-12-07T00:36:52.395Z,97.72
2022-12-07T00:39:21.306Z,98.37
2022-12-07T00:41:50.264Z,97.61
2022-12-07T00:44:18.970Z,97.30
2022-12-07T00:46:49.337Z,97.00
2022-12-07T00:49:17.999Z,96.51
2022-12-07T00:51:46.846Z,97.14
2022-12-07T00:54:15.536Z,96.88
2022-12-07T00:56:44.501Z,96.91
2022-12-07T00:59:16.156Z,97.37
2022-12-07T01:01:45.172Z,97.03
2022-12-07T01:04:15.434Z,96.98
2022-12-07T01:06:44.148Z,97.31
2022-12-07T01:09:13.043Z,97.57
2022-12-07T01:11:41.804Z,97.27
2022-12-07T01:14:11.741Z,97.91
2022-12-07T01:16:42.154Z,97.56
2022-12-07T01:19:11.137Z,97.85
2022-12-07T01:21:41.398Z,97.28
2022-12-07T01:24:12.716Z,96.76
2022-12-07T01:26:42.156Z,96.65
2022-12-07T01:29:11.080Z,96.02
2022-12-07T01:31:39.813Z,96.43
2022-12-07T01:34:08.553Z,96.66
2022-12-07T01:36:38.260Z,96.24
2022-12-07T01:39:11.392Z,96.40
2022-12-07T01:41:44.230Z,95.86
2022-12-07T01:44:19.188Z,94.76
2022-12-07T01:46:48.291Z,94.13
2022-12-07T01:49:22.737Z,94.42
2022-12-07T01:51:53.071Z,94.81
2022-12-07T01:54:23.731Z,94.12
2022-12-07T01:56:54.203Z,94.74
2022-12-07T01:59:26.039Z,94.24
2022-12-07T02:01:55.678Z,94.57
2022-12-07T02:04:25.295Z,94.09
2022-12-07T02:06:54.552Z,94.13
2022-12-07T02:09:24.850Z,93.84
2022-12-07T02:11:54.121Z,94.30
2022-12-07T02:14:23.015Z,95.12
2022-12-07T02:17:01.767Z,94.97
2022-12-07T02:19:50.139Z,95.45
2022-12-07T02:22:31.345Z,95.66
2022-12-07T02:25:07.362Z,95.24
2022-12-07T02:27:45.938Z,95.22
2022-12-07T02:30:17.251Z,95.65
2022-12-07T02:32:53.543Z,95.59
2022-12-07T02:35:26.369Z,96.07
2022-12-07T02:38:01.958Z,96.47
2022-12-07T02:40:34.017Z,96.13
2022-12-07T02:43:06.660Z,96.85
2022-12-07T02:45:37.872Z,96.49
2022-12-07T02:48:07.349Z,97.03
2022-12-07T02:50:36.072Z,96.52
2022-12-07T02:53:05.039Z,96.83
2022-12-07T02:55:39.601Z,97.12
2022-12-07T02:58:26.031Z,97.13
2022-12-07T03:01:02.097Z,97.13
2022-12-07T03:03:31.560Z,96.76
2022-12-07T03:06:11.400Z,96.32
2022-12-07T03:08:46.780Z,95.91
2022-12-07T03:11:21.947Z,95.89
2022-12-07T03:13:53.227Z,95.99
2022-12-07T03:16:26.016Z,96.53
2022-12-07T03:18:58.243Z,96.66
2022-12-07T03:21:29.320Z,96.05
2022-12-07T03:24:01.013Z,96.05
2022-12-07T03:26:34.329Z,95.83
2022-12-07T03:29:07.432Z,95.71
2022-12-07T03:31:40.124Z,95.97
2022-12-07T03:34:13.543Z,95.50
2022-12-07T03:36:45.643Z,96.30
2022-12-07T03:39:21.798Z,96.04
2022-12-07T03:41:50.637Z,95.43
2022-12-07T03:44:19.679Z,95.89
2022-12-07T03:46:54.598Z,95.98
2022-12-07T03:49:24.112Z,95.65
2022-12-07T03:51:56.904Z,95.60
2022-12-07T03:54:28.875Z,95.20
2022-12-07T03:56:58.436Z,95.49
2022-12-07T03:59:27.933Z,95.87
2022-12-07T04:02:00.177Z,95.63
2022-12-07T04:04:29.249Z,94.65
2022-12-07T04:06:58.244Z,94.96
2022-12-07T04:09:27.397Z,94.95
2022-12-07T04:11:56.329Z,94.37
2022-12-07T04:14:25.230Z,93.81
2022-12-07T04:16:57.392Z,94.14
2022-12-07T04:19:29.111Z,93.45
2022-12-07T04:21:58.497Z,93.28
2022-12-07T04:24:27.919Z,92.52
2022-12-07T04:26:56.925Z,92.70
2022-12-07T04:29:25.866Z,93.12
2022-12-07T04:31:55.023Z,93.06
2022-12-07T04:34:23.921Z,93.10
2022-12-07T04:36:54.186Z,93.23
2022-12-07T04:39:24.267Z,93.60
2022-12-07T04:41:53.319Z,93.97
2022-12-07T04:44:22.941Z,93.86
2022-12-07T04:46:51.977Z,93.59
2022-12-07T04:49:21.619Z,92.82
2022-12-07T04:51:50.544Z,91.83
2022-12-07T04:54:20.663Z,91.34
2022-12-07T04:56:49.538Z,91.34
2022-12-07T04:59:19.416Z,90.89
2022-12-07T05:01:48.219Z,90.98
2022-12-07T05:04:18.895Z,90.77
2022-12-07T05:06:48.084Z,90.09
2022-12-07T05:09:16.876Z,90.36
2022-12-07T05:11:47.037Z,89.76
2022-12-07T05:14:17.774Z,89.80
2022-12-07T05:16:48.645Z,89.43
2022-12-07T05:19:17.583Z,89.47
2022-12-07T05:21:46.542Z,90.46
2022-12-07T05:24:16.434Z,90.86
2022-12-07T05:26:50.407Z,90.79
2022-12-07T05:29:22.405Z,91.14
2022-12-07T05:31:51.397Z,91.97
2022-12-07T05:34:20.474Z,91.54
2022-12-07T05:36:51.415Z,91.81
2022-12-07T05:39:20.459Z,91.77
2022-12-07T05:42:08.248Z,91.04
2022-12-07T05:44:37.075Z,91.60
2022-12-07T05:47:06.223Z,91.64
2022-12-07T05:49:38.216Z,91.95
2022-12-07T05:52:07.198Z,92.42
2022-12-07T05:54:36.581Z,92.76
2022-12-07T05:57:09.006Z,93.90
2022-12-07T05:59:37.045Z,94.01
2022-12-07T06:02:07.805Z,93.95
2022-12-07T06:04:39.329Z,93.82
2022-12-07T06:07:08.632Z,94.21
2022-12-07T06:09:37.419Z,94.57
2022-12-07T06:12:25.439Z,94.33
2022-12-07T06:14:54.495Z,94.41
2022-12-07T06:17:23.235Z,94.44
2022-12-07T06:19:52.139Z,94.55
2022-12-07T06:22:21.127Z,94.60
2022-12-07T06:24:49.895Z,94.72
2022-12-07T06:27:19.908Z,94.68
2022-12-07T06:29:52.459Z,94.82
2022-12-07T06:32:21.483Z,94.96
2022-12-07T06:34:50.183Z,94.13
2022-12-07T06:37:19.227Z,94.05
2022-12-07T06:39:48.165Z,93.97
2022-12-07T06:42:16.928Z,94.36
2022-12-07T06:44:47.046Z,93.70
2022-12-07T06:50:06.961Z,94.83
2022-12-07T06:52:35.977Z,94.87
2022-12-07T06:55:04.943Z,95.23
2022-12-07T06:57:33.721Z,95.19
2022-12-07T07:00:04.947Z,94.36
2022-12-07T07:02:34.124Z,93.88
2022-12-07T07:05:03.006Z,93.45
2022-12-07T07:07:33.486Z,92.79
2022-12-07T07:10:11.417Z,92.16
2022-12-07T07:12:40.164Z,90.09
2022-12-07T07:15:13.072Z,89.19
2022-12-07T07:17:42.334Z,87.69
2022-12-07T07:20:12.235Z,88.39
2022-12-07T07:22:41.207Z,88.12
2022-12-07T07:25:10.255Z,88.48
2022-12-07T07:27:39.156Z,87.39
2022-12-07T07:30:10.473Z,87.70
2022-12-07T07:32:39.218Z,86.23
2022-12-07T07:35:08.554Z,84.49
2022-12-07T07:37:37.401Z,85.40
2022-12-07T07:40:07.275Z,86.11
2022-12-07T07:42:36.116Z,85.31
2022-12-07T07:45:05.623Z,84.93
2022-12-07T07:47:36.066Z,85.70
2022-12-07T07:50:05.946Z,86.16
2022-12-07T07:52:35.505Z,87.21
2022-12-07T07:55:05.131Z,87.12
2022-12-07T07:57:34.074Z,87.65
2022-12-07T08:00:03.329Z,87.28
2022-12-07T08:02:43.830Z,86.80
2022-12-07T08:05:13.362Z,85.91
2022-12-07T08:07:42.453Z,84.87
2022-12-07T08:10:13.651Z,85.40
2022-12-07T08:12:57.405Z,84.35
2022-12-07T08:15:27.278Z,84.77
2022-12-07T08:17:57.563Z,83.37
2022-12-07T08:20:26.485Z,81.72
2022-12-07T08:22:55.501Z,81.22
2022-12-07T08:25:24.435Z,81.71
2022-12-07T08:27:53.654Z,81.76
2022-12-07T08:30:22.911Z,81.27
2022-12-07T08:32:52.208Z,82.22
2022-12-07T08:35:22.775Z,81.59
2022-12-07T08:37:51.586Z,80.19
2022-12-07T08:40:22.029Z,80.63
2022-12-07T08:42:54.048Z,80.28
2022-12-07T08:45:27.336Z,79.65
2022-12-07T08:47:59.813Z,79.24
2022-12-07T08:50:31.300Z,79.39
2022-12-07T08:53:01.596Z,79.39
2022-12-07T08:55:31.065Z,79.31
2022-12-07T08:58:00.783Z,80.19
2022-12-07T09:00:30.034Z,79.19
2022-12-07T09:02:58.808Z,77.66
2022-12-07T09:05:29.225Z,77.74
2022-12-07T09:08:02.106Z,78.66
2022-12-07T09:10:31.302Z,78.75
2022-12-07T09:13:01.684Z,78.47
2022-12-07T09:15:30.987Z,78.48
2022-12-07T09:18:02.632Z,78.40
2022-12-07T09:20:32.958Z,77.49
2022-12-07T09:23:01.987Z,77.45
2022-12-07T09:25:30.925Z,78.38
2022-12-07T09:28:00.278Z,78.13
2022-12-07T09:30:30.800Z,77.88
2022-12-07T09:33:00.255Z,78.31
2022-12-07T09:35:29.197Z,77.16
2022-12-07T09:37:59.545Z,76.62
2022-12-07T09:40:28.572Z,76.20
2022-12-07T09:42:57.966Z,76.24
2022-12-07T09:45:29.471Z,75.53
2022-12-07T09:47:58.383Z,76.57
2022-12-07T09:50:29.195Z,76.64
2022-12-07T09:53:17.009Z,77.05
2022-12-07T09:55:46.342Z,75.98
2022-12-07T09:58:21.851Z,75.51
2022-12-07T10:00:51.052Z,74.95
2022-12-07T10:03:20.075Z,74.73
2022-12-07T10:05:51.832Z,75.72
2022-12-07T10:08:22.308Z,76.68
2022-12-07T10:10:53.673Z,76.98
2022-12-07T10:13:26.289Z,77.44
2022-12-07T10:15:59.747Z,77.38
2022-12-07T10:18:37.041Z,77.78
2022-12-07T10:21:14.561Z,77.08
2022-12-07T10:24:01.443Z,77.26
2022-12-07T10:26:33.136Z,76.85
2022-12-07T10:29:03.200Z,76.73
2022-12-07T10:31:32.490Z,77.38
2022-12-07T10:34:02.765Z,77.49
2022-12-07T10:36:37.834Z,76.70
2022-12-07T10:39:13.206Z,76.13
2022-12-07T10:41:56.771Z,76.47
2022-12-07T10:44:27.008Z,76.45
2022-12-07T10:47:14.950Z,77.03
2022-12-07T10:49:59.733Z,78.47
2022-12-07T10:52:39.723Z,78.79
2022-12-07T10:55:19.400Z,78.57
2022-12-07T10:58:11.500Z,78.40
2022-12-07T11:00:44.814Z,78.02
2022-12-07T11:03:25.714Z,78.24
2022-12-07T11:05:58.723Z,78.82
2022-12-07T11:08:40.600Z,79.37
2022-12-07T11:11:15.567Z,80.01
2022-12-07T11:13:49.866Z,80.27
2022-12-07T11:16:29.870Z,80.49
2022-12-07T11:19:08.149Z,81.01
2022-12-07T11:21:42.340Z,82.00
2022-12-07T11:24:16.955Z,82.73
2022-12-07T11:26:58.120Z,83.12
2022-12-07T11:29:45.985Z,83.34
2022-12-07T11:32:20.204Z,84.34
2022-12-07T11:34:57.932Z,84.15
2022-12-07T11:37:36.116Z,84.13
2022-12-07T11:40:17.018Z,84.69
2022-12-07T11:42:52.423Z,84.14
2022-12-07T11:45:25.598Z,84.29
2022-12-07T11:47:55.755Z,84.63
2022-12-07T11:50:29.362Z,84.20
2022-12-07T11:53:01.049Z,84.53
2022-12-07T11:55:32.782Z,84.15
2022-12-07T11:58:07.097Z,84.13
2022-12-07T12:00:36.309Z,84.54
2022-12-07T12:03:10.001Z,83.92
2022-12-07T12:05:38.854Z,84.15
2022-12-07T12:11:14.868Z,84.23
2022-12-07T12:17:16.381Z,84.04
2022-12-07T12:19:46.245Z,83.40
2022-12-07T12:22:20.002Z,83.30
2022-12-07T12:24:52.576Z,83.45
2022-12-07T12:27:25.654Z,83.32
2022-12-07T12:29:58.447Z,83.56
2022-12-07T12:32:35.272Z,83.08
2022-12-07T12:35:27.554Z,82.93
2022-12-07T12:37:57.407Z,82.23
2022-12-07T12:40:48.667Z,82.29
2022-12-07T12:43:53.106Z,82.46
2022-12-07T12:46:53.973Z,82.40
2022-12-07T12:50:13.344Z,82.53
2022-12-07T12:53:01.196Z,81.50
2022-12-07T12:56:02.838Z,81.69
2022-12-07T12:58:35.316Z,82.00
2022-12-07T13:01:49.427Z,81.13
2022-12-07T13:04:54.269Z,81.32
2022-12-07T13:07:59.187Z,80.79
2022-12-07T13:10:38.017Z,81.12
2022-12-07T13:13:30.363Z,81.74
2022-12-07T13:16:51.130Z,81.65
2022-12-07T13:20:00.904Z,81.16
2022-12-07T13:22:57.755Z,81.61
2022-12-07T13:25:38.811Z,81.89
2022-12-07T13:28:17.016Z,81.88
2022-12-07T13:30:51.906Z,82.84
2022-12-07T13:33:21.531Z,82.67
2022-12-07T13:35:50.604Z,81.82
2022-12-07T13:38:26.844Z,82.10
2022-12-07T13:41:06.454Z,81.50
2022-12-07T13:43:50.210Z,81.90
2022-12-07T13:46:21.915Z,81.54
2022-12-07T13:48:52.602Z,82.17
2022-12-07T13:51:24.077Z,81.76
2022-12-07T13:53:55.955Z,82.20
2022-12-07T13:56:28.163Z,81.94
2022-12-07T13:58:57.484Z,82.49
2022-12-07T14:01:27.191Z,82.75
2022-12-07T14:03:55.959Z,83.70
2022-12-07T14:06:27.962Z,82.85
2022-12-07T14:09:11.550Z,83.51
2022-12-07T14:11:41.273Z,82.94
2022-12-07T14:14:17.738Z,83.09
2022-12-07T14:16:56.523Z,83.42
2022-12-07T14:19:47.959Z,83.76
2022-12-07T14:22:29.952Z,83.82
2022-12-07T14:25:18.700Z,83.61
2022-12-07T14:27:54.064Z,83.26
2022-12-07T14:30:23.175Z,82.67
2022-12-07T14:32:55.860Z,82.21
2022-12-07T14:35:24.864Z,81.68
2022-12-07T14:37:53.909Z,81.76
2022-12-07T14:40:26.138Z,80.86
2022-12-07T14:42:58.042Z,81.33
2022-12-07T14:45:26.747Z,81.18
2022-12-07T14:53:39.182Z,81.02
2022-12-07T14:56:09.807Z,81.50
2022-12-07T14:58:38.774Z,81.28
2022-12-07T15:01:07.567Z,81.08
2022-12-07T15:03:39.067Z,81.01
2022-12-07T15:06:08.485Z,81.07
2022-12-07T15:08:37.247Z,81.49
2022-12-07T15:11:06.039Z,81.00
2022-12-07T15:13:53.690Z,81.61
2022-12-07T15:16:22.926Z,82.29
2022-12-07T15:19:26.079Z,83.17
2022-12-07T15:21:41.502Z,83.55
2022-12-07T15:24:11.521Z,83.89
2022-12-07T15:26:41.130Z,83.84
2022-12-07T15:29:11.760Z,83.72
2022-12-07T15:31:55.934Z,84.13
2022-12-07T15:34:27.406Z,85.10
2022-12-07T15:36:56.236Z,84.92
2022-12-07T15:39:24.992Z,84.89
2022-12-07T15:41:53.705Z,84.78
2022-12-07T15:44:41.377Z,84.70
2022-12-07T15:47:10.021Z,84.76
2022-12-07T15:49:38.869Z,84.73
2022-12-07T15:52:07.631Z,84.62
2022-12-07T15:54:36.369Z,84.16
2022-12-07T15:57:05.268Z,83.41
2022-12-07T15:59:35.254Z,83.57
2022-12-07T16:02:04.277Z,83.33
2022-12-07T16:04:33.096Z,83.93
2022-12-07T16:07:01.997Z,83.72
2022-12-07T16:09:30.735Z,83.67
2022-12-07T16:11:59.354Z,83.92
2022-12-07T16:14:28.367Z,84.07
2022-12-07T16:16:58.362Z,84.43
2022-12-07T16:19:27.202Z,84.46
2022-12-07T16:21:55.856Z,84.01
2022-12-07T16:24:24.468Z,84.12
2022-12-07T16:26:53.351Z,84.21
2022-12-07T16:29:23.099Z,84.22
2022-12-07T16:31:52.790Z,83.67
2022-12-07T16:34:22.850Z,82.52
2022-12-07T16:37:06.693Z,82.82
2022-12-07T16:39:36.219Z,83.46
2022-12-07T16:42:05.188Z,83.49
2022-12-07T16:44:33.885Z,83.36
2022-12-07T16:47:02.815Z,82.85
2022-12-07T16:49:33.157Z,82.85
2022-12-07T16:52:19.266Z,83.44
2022-12-07T16:54:48.480Z,83.50
2022-12-07T16:57:22.316Z,84.08
2022-12-07T16:59:52.291Z,84.39
2022-12-07T17:02:21.728Z,84.04
2022-12-07T17:04:53.175Z,83.30
2022-12-07T17:07:21.829Z,83.40
2022-12-07T17:09:50.809Z,83.49
2022-12-07T17:12:20.223Z,83.90
2022-12-07T17:15:06.268Z,83.60
2022-12-07T17:17:35.190Z,83.36
2022-12-07T17:20:06.014Z,83.53
2022-12-07T17:22:34.696Z,83.97
2022-12-07T17:25:03.930Z,83.88
2022-12-07T17:27:33.225Z,83.30
2022-12-07T17:30:02.012Z,84.01
2022-12-07T17:32:30.713Z,83.76
2022-12-07T17:35:00.786Z,83.68
2022-12-07T17:37:32.131Z,83.49
2022-12-07T17:40:01.173Z,83.52
2022-12-07T17:42:40.408Z,82.67
2022-12-07T17:45:11.252Z,82.73
2022-12-07T17:47:40.648Z,82.74
2022-12-07T17:50:10.413Z,82.88
2022-12-07T17:52:59.300Z,82.70
2022-12-07T17:55:27.904Z,82.74
2022-12-07T17:57:57.157Z,81.98
2022-12-07T18:00:26.088Z,81.98
2022-12-07T18:02:54.880Z,82.42
2022-12-07T18:05:23.730Z,82.35
2022-12-07T18:07:55.411Z,82.26
2022-12-07T18:10:24.441Z,82.72
2022-12-07T18:13:13.206Z,82.50
2022-12-07T18:15:42.585Z,82.83
2022-12-07T18:18:11.431Z,83.21
2022-12-07T18:20:41.452Z,83.35
2022-12-07T18:23:12.568Z,83.52
2022-12-07T18:25:43.195Z,84.14
2022-12-07T18:28:12.195Z,84.13
2022-12-07T18:31:13.757Z,84.46
2022-12-07T18:33:31.240Z,84.45
2022-12-07T18:36:02.023Z,83.71
2022-12-07T18:38:32.660Z,83.89
2022-12-07T18:41:02.532Z,84.11
2022-12-07T18:43:31.356Z,83.81
2022-12-07T18:46:00.299Z,84.44
2022-12-07T18:48:29.063Z,84.23
2022-12-07T18:51:03.199Z,84.61
2022-12-07T18:53:34.378Z,84.30
2022-12-07T18:56:04.920Z,84.61
2022-12-07T18:58:33.795Z,84.20
2022-12-07T19:01:03.031Z,83.33
2022-12-07T19:03:33.644Z,83.25
2022-12-07T19:06:07.719Z,83.66
2022-12-07T19:08:38.428Z,83.69
2022-12-07T19:11:27.339Z,83.78
2022-12-07T19:13:56.015Z,84.06
2022-12-07T19:16:24.817Z,84.26
2022-12-07T19:18:54.142Z,84.76
2022-12-07T19:21:23.176Z,84.46
2022-12-07T19:23:53.387Z,84.12
2022-12-07T19:26:23.174Z,84.26
2022-12-07T19:28:52.111Z,83.79
2022-12-07T19:31:20.734Z,83.83
2022-12-07T19:33:49.546Z,83.87
2022-12-07T19:36:18.256Z,84.29
2022-12-07T19:38:46.826Z,84.03
2022-12-07T19:41:31.197Z,83.47
2022-12-07T19:44:00.305Z,84.23
2022-12-07T19:46:29.544Z,83.50
2022-12-07T19:49:00.570Z,84.27
2022-12-07T19:51:29.425Z,83.76
2022-12-07T19:53:59.348Z,83.59
2022-12-07T19:56:31.039Z,84.16
2022-12-07T19:59:02.072Z,83.73
2022-12-07T20:01:31.201Z,83.77
2022-12-07T20:04:00.011Z,83.80
2022-12-07T20:06:28.914Z,83.16
2022-12-07T20:08:57.777Z,83.93
2022-12-07T20:11:45.218Z,83.35
2022-12-07T20:14:14.357Z,83.06
2022-12-07T20:16:45.504Z,83.27
2022-12-07T20:19:15.591Z,83.59
2022-12-07T20:21:45.162Z,83.17
2022-12-07T20:24:17.220Z,83.17
2022-12-07T20:26:49.003Z,83.40
2022-12-07T20:29:19.904Z,82.76
2022-12-07T20:31:49.638Z,83.13
2022-12-07T20:34:18.826Z,83.74
2022-12-07T20:36:47.728Z,84.01
2022-12-07T20:39:16.715Z,83.24
2022-12-07T20:42:04.363Z,83.52
2022-12-07T20:44:34.924Z,83.46
2022-12-07T20:47:04.334Z,82.59
2022-12-07T20:49:33.152Z,82.93
2022-12-07T20:52:01.908Z,83.05
2022-12-07T20:54:30.570Z,83.18
2022-12-07T20:57:00.648Z,83.31
2022-12-07T20:59:29.314Z,83.03
2022-12-07T21:01:58.230Z,82.50
2022-12-07T21:04:27.625Z,82.48
2022-12-07T21:06:56.383Z,82.91
2022-12-07T21:09:27.066Z,83.17
2022-12-07T21:11:56.500Z,82.71
2022-12-07T21:14:26.884Z,82.75
2022-12-07T21:16:57.816Z,82.53
2022-12-07T21:19:26.509Z,83.12
2022-12-07T21:21:55.313Z,82.75
2022-12-07T21:24:24.058Z,82.76
2022-12-07T21:26:52.741Z,82.78
2022-12-07T21:29:40.714Z,83.14
2022-12-07T21:32:12.211Z,83.23
2022-12-07T21:34:41.141Z,82.62
2022-12-07T21:37:10.089Z,82.81
2022-12-07T21:39:39.157Z,83.30
2022-12-07T21:42:07.815Z,83.23
2022-12-07T21:44:36.803Z,83.36
2022-12-07T21:47:05.998Z,83.40
2022-12-07T21:49:36.558Z,83.85
2022-12-07T21:52:05.876Z,83.64
2022-12-07T21:54:34.634Z,83.65
2022-12-07T21:57:03.619Z,83.46
2022-12-07T21:59:32.215Z,83.84
2022-12-07T22:02:01.050Z,84.44
2022-12-07T22:04:29.967Z,83.98
2022-12-07T22:07:01.565Z,83.96
2022-12-07T22:09:30.591Z,84.34
2022-12-07T22:11:59.387Z,84.00
2022-12-07T22:14:45.607Z,84.44
2022-12-07T22:17:14.594Z,84.46
2022-12-07T22:19:43.229Z,84.20
2022-12-07T22:22:16.218Z,83.65
2022-12-07T22:24:45.428Z,84.36
2022-12-07T22:27:14.242Z,84.30
2022-12-07T22:29:42.922Z,84.51
2022-12-07T22:32:46.042Z,83.91
2022-12-07T22:35:01.200Z,84.17
2022-12-07T22:37:32.256Z,83.96
2022-12-07T22:40:01.360Z,84.00
2022-12-07T22:42:29.949Z,84.36
2022-12-07T22:44:58.514Z,84.29
2022-12-07T22:47:27.232Z,84.86
2022-12-07T22:49:56.752Z,84.77
2022-12-07T22:52:25.484Z,84.55
2022-12-07T22:54:55.554Z,84.64
2022-12-07T22:57:24.176Z,84.56
2022-12-07T22:59:52.910Z,84.10
2022-12-07T23:02:21.516Z,84.23
2022-12-07T23:04:50.406Z,84.49
2022-12-07T23:07:19.048Z,83.93
2022-12-07T23:09:47.722Z,84.59
2022-12-07T23:12:35.458Z,84.88
2022-12-07T23:15:06.072Z,84.45
2022-12-07T23:17:37.301Z,84.83
2022-12-07T23:20:07.298Z,85.10
2022-12-07T23:22:35.944Z,84.79
2022-12-07T23:25:05.455Z,84.38
2022-12-07T23:27:35.890Z,84.71
2022-12-07T23:30:05.065Z,84.47
2022-12-07T23:32:33.670Z,84.70
2022-12-07T23:35:02.825Z,85.01
2022-12-07T23:37:31.651Z,85.54
2022-12-07T23:40:00.263Z,84.97
2022-12-07T23:42:28.901Z,83.78
2022-12-07T23:44:58.845Z,84.72
2022-12-07T23:47:27.616Z,84.63
2022-12-07T23:49:56.200Z,84.75
2022-12-07T23:52:24.768Z,84.55
2022-12-07T23:54:53.614Z,84.58
2022-12-07T23:57:22.240Z,84.78
2022-12-07T23:59:51.904Z,84.13
